Moorefield, Nebraska
Current Conditions -  °F | °C
As of 2:15 PM on Friday 24 Oct 2014 (Local Time) from KLXN Reporting Station
Clear Clear  
Wind Chill: 80°   Ceiling: Unl
Heat Index: 80°   Visibility: 10mi
Dew Point: 42°   Wind: 9mph
Humidity: 25%   Direction: 270°W
Pressure: 29.97"   Gusts: NA
Location:  40.69°N, 100.4°W
Report Text: KLXN 241915Z AUTO 27008KT 10SM CLR 27/05 A2997 RMK AO2 T02690053
Loading
Personal Weather Stations






























Interactive Weather Map New forecast layout! Learn more

10-Day Weather Forecast

Advertisements
Track Severe Weather on mobile